sensor_id;sensor_type;location;lat;lon;timestamp;pressure;altitude;pressure_sealevel;temperature;humidity
49945;BME280;35838;49.134;9.212;2023-01-27T01:54:42;100220.16;;;0.49;71.27
49945;BME280;35838;49.134;9.212;2023-01-27T01:56:18;100216.84;;;0.51;70.88
49945;BME280;35838;49.134;9.212;2023-01-27T01:57:54;100215.09;;;0.50;70.69
49945;BME280;35838;49.134;9.212;2023-01-27T01:59:30;100218.97;;;0.40;71.41
49945;BME280;35838;49.134;9.212;2023-01-27T02:01:05;100217.41;;;0.44;71.73
49945;BME280;35838;49.134;9.212;2023-01-27T02:02:36;100216.38;;;0.39;71.52
49945;BME280;35838;49.134;9.212;2023-01-27T02:04:11;100214.09;;;0.25;71.76
49945;BME280;35838;49.134;9.212;2023-01-27T02:05:46;100218.72;;;0.34;72.15
49945;BME280;35838;49.134;9.212;2023-01-27T02:07:18;100213.81;;;0.39;72.29
49945;BME280;35838;49.134;9.212;2023-01-27T02:08:53;100213.91;;;0.42;72.39
49945;BME280;35838;49.134;9.212;2023-01-27T02:10:27;100213.25;;;0.46;71.99
49945;BME280;35838;49.134;9.212;2023-01-27T02:12:01;100223.56;;;0.49;71.67
49945;BME280;35838;49.134;9.212;2023-01-27T02:13:34;100215.84;;;0.47;71.41
49945;BME280;35838;49.134;9.212;2023-01-27T02:15:09;100214.38;;;0.53;71.40
49945;BME280;35838;49.134;9.212;2023-01-27T02:16:40;100216.06;;;0.52;71.13
49945;BME280;35838;49.134;9.212;2023-01-27T02:18:14;100214.38;;;0.53;71.55
49945;BME280;35838;49.134;9.212;2023-01-27T02:19:49;100209.38;;;0.56;71.67
49945;BME280;35838;49.134;9.212;2023-01-27T02:21:27;100213.63;;;0.55;71.77
49945;BME280;35838;49.134;9.212;2023-01-27T02:23:02;100213.50;;;0.52;71.72
49945;BME280;35838;49.134;9.212;2023-01-27T02:24:37;100213.88;;;0.40;71.16
49945;BME280;35838;49.134;9.212;2023-01-27T02:26:17;100214.63;;;0.38;71.48
49945;BME280;35838;49.134;9.212;2023-01-27T02:27:52;100212.97;;;0.40;71.41
49945;BME280;35838;49.134;9.212;2023-01-27T02:29:23;100211.66;;;0.48;71.12
49945;BME280;35838;49.134;9.212;2023-01-27T02:30:58;100210.41;;;0.40;71.02
49945;BME280;35838;49.134;9.212;2023-01-27T02:32:31;100215.28;;;0.34;71.66
49945;BME280;35838;49.134;9.212;2023-01-27T02:34:04;100209.13;;;0.28;71.93
49945;BME280;35838;49.134;9.212;2023-01-27T02:35:40;100212.66;;;0.32;72.37
49945;BME280;35838;49.134;9.212;2023-01-27T02:37:15;100212.72;;;0.34;72.48
49945;BME280;35838;49.134;9.212;2023-01-27T02:38:49;100202.59;;;0.35;72.80
49945;BME280;35838;49.134;9.212;2023-01-27T02:40:25;100203.47;;;0.36;73.47
49945;BME280;35838;49.134;9.212;2023-01-27T02:42:01;100204.41;;;0.38;73.28
49945;BME280;35838;49.134;9.212;2023-01-27T02:43:36;100208.06;;;0.44;73.08
49945;BME280;35838;49.134;9.212;2023-01-27T02:45:10;100204.09;;;0.51;72.80
49945;BME280;35838;49.134;9.212;2023-01-27T02:46:43;100206.66;;;0.51;72.57
49945;BME280;35838;49.134;9.212;2023-01-27T02:48:17;100206.03;;;0.57;72.16
49945;BME280;35838;49.134;9.212;2023-01-27T02:49:51;100206.16;;;0.60;72.16
49945;BME280;35838;49.134;9.212;2023-01-27T02:51:24;100207.72;;;0.56;72.12
49945;BME280;35838;49.134;9.212;2023-01-27T02:52:58;100206.66;;;0.51;72.31
49945;BME280;35838;49.134;9.212;2023-01-27T02:54:29;100204.22;;;0.54;72.42
49945;BME280;35838;49.134;9.212;2023-01-27T02:56:03;100202.66;;;0.58;72.13
49945;BME280;35838;49.134;9.212;2023-01-27T02:57:37;100208.63;;;0.58;72.08
49945;BME280;35838;49.134;9.212;2023-01-27T02:59:10;100201.97;;;0.62;72.32
49945;BME280;35838;49.134;9.212;2023-01-27T03:00:44;100213.13;;;0.64;71.86
49945;BME280;35838;49.134;9.212;2023-01-27T03:02:17;100204.03;;;0.50;71.65
49945;BME280;35838;49.134;9.212;2023-01-27T03:03:52;100201.28;;;0.45;72.12
49945;BME280;35838;49.134;9.212;2023-01-27T03:05:26;100199.78;;;0.50;72.01
49945;BME280;35838;49.134;9.212;2023-01-27T03:06:59;100205.28;;;0.59;72.36
49945;BME280;35838;49.134;9.212;2023-01-27T03:08:33;100196.66;;;0.57;72.77
49945;BME280;35838;49.134;9.212;2023-01-27T03:10:07;100203.53;;;0.58;72.65
49945;BME280;35838;49.134;9.212;2023-01-27T03:11:41;100195.94;;;0.60;72.91
49945;BME280;35838;49.134;9.212;2023-01-27T03:13:30;100201.09;;;0.61;72.54
49945;BME280;35838;49.134;9.212;2023-01-27T03:15:04;100206.09;;;0.58;72.38
49945;BME280;35838;49.134;9.212;2023-01-27T03:16:50;100203.66;;;0.61;72.73
49945;BME280;35838;49.134;9.212;2023-01-27T03:18:36;100212.06;;;0.59;72.92
49945;BME280;35838;49.134;9.212;2023-01-27T03:20:10;100212.75;;;0.55;72.42
49945;BME280;35838;49.134;9.212;2023-01-27T03:21:41;100205.78;;;0.51;72.35
49945;BME280;35838;49.134;9.212;2023-01-27T03:23:16;100203.28;;;0.52;72.97
49945;BME280;35838;49.134;9.212;2023-01-27T03:24:50;100210.00;;;0.50;72.85
49945;BME280;35838;49.134;9.212;2023-01-27T03:26:21;100209.44;;;0.57;72.67
49945;BME280;35838;49.134;9.212;2023-01-27T03:27:55;100201.53;;;0.51;72.84
49945;BME280;35838;49.134;9.212;2023-01-27T03:29:32;100207.81;;;0.59;72.63
49945;BME280;35838;49.134;9.212;2023-01-27T03:31:18;100209.28;;;0.53;73.07
49945;BME280;35838;49.134;9.212;2023-01-27T03:32:51;100212.06;;;0.38;72.94
49945;BME280;35838;49.134;9.212;2023-01-27T03:34:25;100212.31;;;0.44;73.37
49945;BME280;35838;49.134;9.212;2023-01-27T03:35:56;100205.59;;;0.46;73.77
49945;BME280;35838;49.134;9.212;2023-01-27T03:37:43;100208.25;;;0.49;73.32
49945;BME280;35838;49.134;9.212;2023-01-27T03:39:29;100204.91;;;0.50;73.40
49945;BME280;35838;49.134;9.212;2023-01-27T03:41:15;100214.38;;;0.53;73.29
49945;BME280;35838;49.134;9.212;2023-01-27T03:43:01;100205.88;;;0.54;73.35
49945;BME280;35838;49.134;9.212;2023-01-27T03:44:49;100210.00;;;0.50;73.47
49945;BME280;35838;49.134;9.212;2023-01-27T03:46:35;100212.97;;;0.40;72.99
49945;BME280;35838;49.134;9.212;2023-01-27T03:48:09;100210.38;;;0.38;73.23
49945;BME280;35838;49.134;9.212;2023-01-27T03:49:41;100218.97;;;0.40;73.35
49945;BME280;35838;49.134;9.212;2023-01-27T03:51:15;100211.25;;;0.39;73.82
49945;BME280;35838;49.134;9.212;2023-01-27T03:52:49;100223.13;;;0.38;74.03
49945;BME280;35838;49.134;9.212;2023-01-27T03:54:32;100221.59;;;0.42;73.50
49945;BME280;35838;49.134;9.212;2023-01-27T03:56:06;100221.03;;;0.49;73.16
49945;BME280;35838;49.134;9.212;2023-01-27T03:57:40;100221.97;;;0.51;73.03
49945;BME280;35838;49.134;9.212;2023-01-27T03:59:13;100228.03;;;0.53;73.27
49945;BME280;35838;49.134;9.212;2023-01-27T04:00:51;100227.22;;;0.54;73.04
49945;BME280;35838;49.134;9.212;2023-01-27T04:02:22;100228.97;;;0.55;72.63
49945;BME280;35838;49.134;9.212;2023-01-27T04:04:08;100233.78;;;0.49;72.63
49945;BME280;35838;49.134;9.212;2023-01-27T04:05:54;100229.53;;;0.48;72.57
49945;BME280;35838;49.134;9.212;2023-01-27T04:07:40;100239.47;;;0.42;73.08
49945;BME280;35838;49.134;9.212;2023-01-27T04:09:17;100236.16;;;0.44;72.92
49945;BME280;35838;49.134;9.212;2023-01-27T04:10:51;100236.50;;;0.52;73.08
49945;BME280;35838;49.134;9.212;2023-01-27T04:12:37;100240.97;;;0.37;72.91
49945;BME280;35838;49.134;9.212;2023-01-27T04:14:11;100243.25;;;0.30;73.16
49945;BME280;35838;49.134;9.212;2023-01-27T04:15:42;100236.50;;;0.33;73.17
49945;BME280;35838;49.134;9.212;2023-01-27T04:17:18;100234.09;;;0.36;73.52
49945;BME280;35838;49.134;9.212;2023-01-27T04:18:52;100237.50;;;0.36;73.73
49945;BME280;35838;49.134;9.212;2023-01-27T04:20:23;100240.22;;;0.39;73.94
49945;BME280;35838;49.134;9.212;2023-01-27T04:21:56;100240.25;;;0.41;73.92
49945;BME280;35838;49.134;9.212;2023-01-27T04:23:28;100237.91;;;0.45;73.94
49945;BME280;35838;49.134;9.212;2023-01-27T04:25:01;100242.59;;;0.56;73.02
49945;BME280;35838;49.134;9.212;2023-01-27T04:26:35;100239.94;;;0.53;73.41
49945;BME280;35838;49.134;9.212;2023-01-27T04:28:06;100239.75;;;0.48;73.17
49945;BME280;35838;49.134;9.212;2023-01-27T04:29:40;100241.34;;;0.46;73.08
49945;BME280;35838;49.134;9.212;2023-01-27T04:31:14;100242.28;;;0.48;73.74
49945;BME280;35838;49.134;9.212;2023-01-27T04:32:48;100243.22;;;0.50;74.10
49945;BME280;35838;49.134;9.212;2023-01-27T04:34:21;100244.56;;;0.42;73.96
49945;BME280;35838;49.134;9.212;2023-01-27T04:35:55;100248.25;;;0.49;73.80
49945;BME280;35838;49.134;9.212;2023-01-27T04:37:26;100248.13;;;0.45;73.43
49945;BME280;35838;49.134;9.212;2023-01-27T04:39:00;100241.59;;;0.52;73.47
49945;BME280;35838;49.134;9.212;2023-01-27T04:40:31;100246.50;;;0.47;73.90
49945;BME280;35838;49.134;9.212;2023-01-27T04:42:04;100248.25;;;0.49;74.51
49945;BME280;35838;49.134;9.212;2023-01-27T04:43:38;100248.31;;;0.50;74.39
49945;BME280;35838;49.134;9.212;2023-01-27T04:45:09;100249.63;;;0.40;73.52
49945;BME280;35838;49.134;9.212;2023-01-27T04:46:42;100248.88;;;0.43;73.67
49945;BME280;35838;49.134;9.212;2023-01-27T04:48:19;100248.25;;;0.49;73.87
49945;BME280;35838;49.134;9.212;2023-01-27T04:49:52;100249.25;;;0.52;74.09
49945;BME280;35838;49.134;9.212;2023-01-27T04:51:26;100246.03;;;0.56;73.95
49945;BME280;35838;49.134;9.212;2023-01-27T04:52:59;100245.28;;;0.59;74.06
49945;BME280;35838;49.134;9.212;2023-01-27T04:54:30;100240.22;;;0.60;74.22
49945;BME280;35838;49.134;9.212;2023-01-27T04:56:05;100244.69;;;0.65;73.91
49945;BME280;35838;49.134;9.212;2023-01-27T04:57:37;100236.50;;;0.52;73.90
49945;BME280;35838;49.134;9.212;2023-01-27T04:59:11;100234.44;;;0.43;74.28
49945;BME280;35838;49.134;9.212;2023-01-27T05:00:42;100232.88;;;0.47;74.56
49945;BME280;35838;49.134;9.212;2023-01-27T05:02:16;100242.28;;;0.48;74.43
49945;BME280;35838;49.134;9.212;2023-01-27T05:03:52;100234.69;;;0.50;74.64
49945;BME280;35838;49.134;9.212;2023-01-27T05:05:25;100245.09;;;0.54;74.62
49945;BME280;35838;49.134;9.212;2023-01-27T05:06:59;100245.41;;;0.62;73.75
49945;BME280;35838;49.134;9.212;2023-01-27T05:08:34;100247.50;;;0.51;73.54
49945;BME280;35838;49.134;9.212;2023-01-27T05:10:08;100244.00;;;0.49;74.06
49945;BME280;35838;49.134;9.212;2023-01-27T05:11:42;100251.75;;;0.51;74.55
49945;BME280;35838;49.134;9.212;2023-01-27T05:13:15;100254.41;;;0.54;74.16
49945;BME280;35838;49.134;9.212;2023-01-27T05:14:46;100247.41;;;0.48;73.69
49945;BME280;35838;49.134;9.212;2023-01-27T05:16:20;100244.00;;;0.49;73.97
49945;BME280;35838;49.134;9.212;2023-01-27T05:17:54;100233.00;;;0.50;74.04
49945;BME280;35838;49.134;9.212;2023-01-27T05:19:28;100234.06;;;0.55;73.31
49945;BME280;35838;49.134;9.212;2023-01-27T05:21:02;100234.06;;;0.55;73.51
49945;BME280;35838;49.134;9.212;2023-01-27T05:22:34;100240.94;;;0.56;73.40
49945;BME280;35838;49.134;9.212;2023-01-27T05:24:08;100239.94;;;0.53;73.40
49945;BME280;35838;49.134;9.212;2023-01-27T05:25:42;100249.41;;;0.55;73.75
49945;BME280;35838;49.134;9.212;2023-01-27T05:27:13;100256.25;;;0.56;73.28
49945;BME280;35838;49.134;9.212;2023-01-27T05:28:47;100254.50;;;0.55;73.71
49945;BME280;35838;49.134;9.212;2023-01-27T05:30:21;100261.38;;;0.56;73.68
49945;BME280;35838;49.134;9.212;2023-01-27T05:31:52;100259.63;;;0.55;74.06
49945;BME280;35838;49.134;9.212;2023-01-27T05:33:26;100264.03;;;0.59;73.64
49945;BME280;35838;49.134;9.212;2023-01-27T05:35:00;100260.66;;;0.60;73.99
49945;BME280;35838;49.134;9.212;2023-01-27T05:36:33;100261.47;;;0.59;74.15
49945;BME280;35838;49.134;9.212;2023-01-27T05:38:07;100256.25;;;0.56;74.30
49945;BME280;35838;49.134;9.212;2023-01-27T05:39:38;100251.25;;;0.59;73.87
49945;BME280;35838;49.134;9.212;2023-01-27T05:41:12;100264.13;;;0.61;73.81
49945;BME280;35838;49.134;9.212;2023-01-27T05:42:43;100257.50;;;0.66;73.82
49945;BME280;35838;49.134;9.212;2023-01-27T05:44:17;100263.47;;;0.67;73.87
49945;BME280;35838;49.134;9.212;2023-01-27T05:45:51;100259.31;;;0.69;73.59
49945;BME280;35838;49.134;9.212;2023-01-27T05:47:22;100269.47;;;0.67;73.81
49945;BME280;35838;49.134;9.212;2023-01-27T05:48:56;100260.25;;;0.71;73.55
49945;BME280;35838;49.134;9.212;2023-01-27T05:50:33;100267.97;;;0.72;73.51
49945;BME280;35838;49.134;9.212;2023-01-27T05:52:07;100262.81;;;0.71;72.99
49945;BME280;35838;49.134;9.212;2023-01-27T05:53:40;100258.63;;;0.73;73.42
49945;BME280;35838;49.134;9.212;2023-01-27T05:55:14;100257.75;;;0.72;73.72
49945;BME280;35838;49.134;9.212;2023-01-27T05:56:48;100254.09;;;0.66;73.46
49945;BME280;35838;49.134;9.212;2023-01-27T05:58:22;100252.41;;;0.66;73.17
49945;BME280;35838;49.134;9.212;2023-01-27T05:59:53;100255.91;;;0.68;72.87
49945;BME280;35838;49.134;9.212;2023-01-27T06:01:27;100261.75;;;0.66;73.37
49945;BME280;35838;49.134;9.212;2023-01-27T06:03:01;100265.16;;;0.66;73.62
49945;BME280;35838;49.134;9.212;2023-01-27T06:04:36;100260.09;;;0.68;73.83
49945;BME280;35838;49.134;9.212;2023-01-27T06:06:13;100267.59;;;0.63;73.70
49945;BME280;35838;49.134;9.212;2023-01-27T06:07:47;100266.03;;;0.67;73.77
49945;BME280;35838;49.134;9.212;2023-01-27T06:09:21;100267.78;;;0.68;73.83
49945;BME280;35838;49.134;9.212;2023-01-27T06:10:54;100271.09;;;0.65;73.79
49945;BME280;35838;49.134;9.212;2023-01-27T06:12:25;100267.09;;;0.72;73.81
49945;BME280;35838;49.134;9.212;2023-01-27T06:13:59;100255.19;;;0.72;73.84
49945;BME280;35838;49.134;9.212;2023-01-27T06:15:33;100270.59;;;0.74;73.50
49945;BME280;35838;49.134;9.212;2023-01-27T06:17:04;100260.25;;;0.71;73.76
49945;BME280;35838;49.134;9.212;2023-01-27T06:18:39;100265.41;;;0.72;73.91
49945;BME280;35838;49.134;9.212;2023-01-27T06:20:12;100259.59;;;0.75;73.80
49945;BME280;35838;49.134;9.212;2023-01-27T06:21:49;100262.06;;;0.73;73.92
49945;BME280;35838;49.134;9.212;2023-01-27T06:23:22;100265.50;;;0.74;73.77
49945;BME280;35838;49.134;9.212;2023-01-27T06:24:57;100262.84;;;0.72;73.62
49945;BME280;35838;49.134;9.212;2023-01-27T06:26:30;100263.84;;;0.76;73.34
49945;BME280;35838;49.134;9.212;2023-01-27T06:28:04;100258.69;;;0.74;73.29
49945;BME280;35838;49.134;9.212;2023-01-27T06:29:38;100257.94;;;0.77;73.45
49945;BME280;35838;49.134;9.212;2023-01-27T06:31:12;100258.88;;;0.79;73.26
49945;BME280;35838;49.134;9.212;2023-01-27T06:32:46;100262.63;;;0.87;72.75
49945;BME280;35838;49.134;9.212;2023-01-27T06:34:20;100264.94;;;0.81;72.90
49945;BME280;35838;49.134;9.212;2023-01-27T06:35:58;100258.69;;;0.74;72.85
49945;BME280;35838;49.134;9.212;2023-01-27T06:37:35;100274.38;;;0.62;72.90
49945;BME280;35838;49.134;9.212;2023-01-27T06:39:09;100271.22;;;0.68;73.07
49945;BME280;35838;49.134;9.212;2023-01-27T06:40:42;100274.00;;;0.53;73.29
49945;BME280;35838;49.134;9.212;2023-01-27T06:42:16;100279.09;;;0.53;73.48
49945;BME280;35838;49.134;9.212;2023-01-27T06:43:50;100285.28;;;0.58;74.01
49945;BME280;35838;49.134;9.212;2023-01-27T06:45:23;100283.81;;;0.64;74.03
49945;BME280;35838;49.134;9.212;2023-01-27T06:46:57;100289.53;;;0.58;73.65
49945;BME280;35838;49.134;9.212;2023-01-27T06:48:30;100289.84;;;0.66;73.64
49945;BME280;35838;49.134;9.212;2023-01-27T06:50:05;100294.88;;;0.64;73.57
49945;BME280;35838;49.134;9.212;2023-01-27T06:51:42;100295.44;;;0.57;73.80
49945;BME280;35838;49.134;9.212;2023-01-27T06:53:18;100302.44;;;0.61;73.75
49945;BME280;35838;49.134;9.212;2023-01-27T06:54:52;100302.53;;;0.64;74.05
49945;BME280;35838;49.134;9.212;2023-01-27T06:56:25;100307.66;;;0.64;73.65
49945;BME280;35838;49.134;9.212;2023-01-27T06:57:59;100311.41;;;0.72;73.33
49945;BME280;35838;49.134;9.212;2023-01-27T06:59:31;100314.72;;;0.70;73.33
49945;BME280;35838;49.134;9.212;2023-01-27T07:01:04;100319.16;;;0.74;73.49
49945;BME280;35838;49.134;9.212;2023-01-27T07:02:38;100315.84;;;0.76;73.73
49945;BME280;35838;49.134;9.212;2023-01-27T07:04:12;100322.81;;;0.81;73.55
49945;BME280;35838;49.134;9.212;2023-01-27T07:05:45;100316.59;;;0.74;73.09
49945;BME280;35838;49.134;9.212;2023-01-27T07:07:19;100326.13;;;0.78;73.10
49945;BME280;35838;49.134;9.212;2023-01-27T07:08:55;100327.47;;;0.70;73.13
49945;BME280;35838;49.134;9.212;2023-01-27T07:10:29;100331.94;;;0.74;73.32
49945;BME280;35838;49.134;9.212;2023-01-27T07:12:03;100322.31;;;0.68;73.50
49945;BME280;35838;49.134;9.212;2023-01-27T07:13:36;100326.34;;;0.63;73.11
49945;BME280;35838;49.134;9.212;2023-01-27T07:15:10;100333.41;;;0.69;73.28
49945;BME280;35838;49.134;9.212;2023-01-27T07:16:44;100327.47;;;0.70;73.55
49945;BME280;35838;49.134;9.212;2023-01-27T07:18:18;100328.44;;;0.72;73.56
49945;BME280;35838;49.134;9.212;2023-01-27T07:19:51;100329.44;;;0.75;73.67
49945;BME280;35838;49.134;9.212;2023-01-27T07:21:25;100332.53;;;0.68;72.96
49945;BME280;35838;49.134;9.212;2023-01-27T07:22:59;100334.94;;;0.65;72.62
49945;BME280;35838;49.134;9.212;2023-01-27T07:24:35;100334.00;;;0.63;73.27
49945;BME280;35838;49.134;9.212;2023-01-27T07:26:09;100332.41;;;0.65;73.37
49945;BME280;35838;49.134;9.212;2023-01-27T07:27:42;100339.41;;;0.69;73.35
49945;BME280;35838;49.134;9.212;2023-01-27T07:29:16;100335.16;;;0.70;72.92
49945;BME280;35838;49.134;9.212;2023-01-27T07:30:50;100345.63;;;0.76;72.49
49945;BME280;35838;49.134;9.212;2023-01-27T07:32:23;100344.00;;;0.78;72.86
49945;BME280;35838;49.134;9.212;2023-01-27T07:33:57;100345.81;;;0.81;72.93
49945;BME280;35838;49.134;9.212;2023-01-27T07:35:31;100351.03;;;0.82;73.47
49945;BME280;35838;49.134;9.212;2023-01-27T07:37:04;100355.38;;;0.85;72.36
49945;BME280;35838;49.134;9.212;2023-01-27T07:38:38;100352.47;;;0.77;72.71
49945;BME280;35838;49.134;9.212;2023-01-27T07:40:14;100351.06;;;0.84;72.54
49945;BME280;35838;49.134;9.212;2023-01-27T07:41:48;100349.31;;;0.83;72.75
49945;BME280;35838;49.134;9.212;2023-01-27T07:43:21;100349.47;;;0.86;72.39
49945;BME280;35838;49.134;9.212;2023-01-27T07:44:55;100351.63;;;0.76;72.19
49945;BME280;35838;49.134;9.212;2023-01-27T07:46:29;100353.50;;;0.81;72.58
49945;BME280;35838;49.134;9.212;2023-01-27T07:48:04;100357.19;;;0.87;71.63
49945;BME280;35838;49.134;9.212;2023-01-27T07:49:37;100349.38;;;0.84;72.07
49945;BME280;35838;49.134;9.212;2023-01-27T07:51:11;100349.38;;;0.84;71.76
49945;BME280;35838;49.134;9.212;2023-01-27T07:52:45;100357.19;;;0.87;72.09
49945;BME280;35838;49.134;9.212;2023-01-27T07:57:35;100356.38;;;0.88;72.05
49945;BME280;35838;49.134;9.212;2023-01-27T07:59:09;100355.72;;;0.92;71.55
49945;BME280;35838;49.134;9.212;2023-01-27T08:00:43;100355.78;;;0.94;71.51
49945;BME280;35838;49.134;9.212;2023-01-27T08:02:16;100366.09;;;0.97;71.73
49945;BME280;35838;49.134;9.212;2023-01-27T08:03:50;100372.09;;;0.98;71.72
49945;BME280;35838;49.134;9.212;2023-01-27T08:05:24;100375.47;;;0.97;71.78
49945;BME280;35838;49.134;9.212;2023-01-27T08:06:57;100378.97;;;0.99;71.81
49945;BME280;35838;49.134;9.212;2023-01-27T08:08:32;100376.97;;;0.91;71.27
49945;BME280;35838;49.134;9.212;2023-01-27T08:10:05;100378.84;;;0.96;71.37
49945;BME280;35838;49.134;9.212;2023-01-27T08:11:39;100383.34;;;1.01;71.47
49945;BME280;35838;49.134;9.212;2023-01-27T08:13:15;100381.59;;;1.00;71.60
49945;BME280;35838;49.134;9.212;2023-01-27T08:14:49;100381.72;;;1.03;71.43
49945;BME280;35838;49.134;9.212;2023-01-27T08:16:23;100374.47;;;0.93;71.69
49945;BME280;35838;49.134;9.212;2023-01-27T08:17:56;100379.38;;;0.88;71.74
49945;BME280;35838;49.134;9.212;2023-01-27T08:19:31;100372.69;;;0.71;71.91
49945;BME280;35838;49.134;9.212;2023-01-27T08:21:06;100375.28;;;0.72;71.79
49945;BME280;35838;49.134;9.212;2023-01-27T08:22:40;100379.69;;;0.75;72.41
49945;BME280;35838;49.134;9.212;2023-01-27T08:24:14;100369.31;;;0.72;72.60
49945;BME280;35838;49.134;9.212;2023-01-27T08:25:48;100375.56;;;0.78;72.73
49945;BME280;35838;49.134;9.212;2023-01-27T08:27:22;100371.53;;;0.84;72.69
49945;BME280;35838;49.134;9.212;2023-01-27T08:28:58;100378.44;;;0.86;72.90
49945;BME280;35838;49.134;9.212;2023-01-27T08:30:32;100376.69;;;0.85;73.14
49945;BME280;35838;49.134;9.212;2023-01-27T08:32:06;100379.59;;;0.93;72.69
49945;BME280;35838;49.134;9.212;2023-01-27T08:33:40;100368.63;;;0.76;72.75
49945;BME280;35838;49.134;9.212;2023-01-27T08:35:14;100368.22;;;0.86;72.73
49945;BME280;35838;49.134;9.212;2023-01-27T08:36:47;100373.47;;;0.89;72.27
49945;BME280;35838;49.134;9.212;2023-01-27T08:38:21;100382.88;;;0.90;72.61
49945;BME280;35838;49.134;9.212;2023-01-27T08:39:55;100380.34;;;0.90;72.59
49945;BME280;35838;49.134;9.212;2023-01-27T08:41:28;100391.63;;;0.96;72.28
49945;BME280;35838;49.134;9.212;2023-01-27T08:43:02;100389.81;;;0.93;72.16
49945;BME280;35838;49.134;9.212;2023-01-27T08:44:38;100390.75;;;0.95;71.83
49945;BME280;35838;49.134;9.212;2023-01-27T08:46:12;100391.63;;;0.76;71.46
49945;BME280;35838;49.134;9.212;2023-01-27T08:47:45;100394.31;;;0.79;71.72
49945;BME280;35838;49.134;9.212;2023-01-27T08:49:19;100400.22;;;0.78;72.22
49945;BME280;35838;49.134;9.212;2023-01-27T08:50:53;100400.50;;;0.84;72.42
49945;BME280;35838;49.134;9.212;2023-01-27T08:52:26;100393.78;;;0.86;72.25
49945;BME280;35838;49.134;9.212;2023-01-27T08:54:00;100387.19;;;0.91;72.42
49945;BME280;35838;49.134;9.212;2023-01-27T08:55:34;100387.59;;;1.01;72.71
49945;BME280;35838;49.134;9.212;2023-01-27T08:57:07;100393.81;;;1.07;72.85
49945;BME280;35838;49.134;9.212;2023-01-27T08:58:41;100401.56;;;1.09;72.80
49945;BME280;35838;49.134;9.212;2023-01-27T09:00:19;100401.69;;;1.12;72.55
49945;BME280;35838;49.134;9.212;2023-01-27T09:01:53;100399.31;;;1.17;72.11
49945;BME280;35838;49.134;9.212;2023-01-27T09:03:27;100397.09;;;1.24;71.72
49945;BME280;35838;49.134;9.212;2023-01-27T09:05:00;100403.00;;;1.23;71.58
49945;BME280;35838;49.134;9.212;2023-01-27T09:06:34;100398.56;;;1.19;71.62
49945;BME280;35838;49.134;9.212;2023-01-27T09:08:08;100393.44;;;1.19;71.05
49945;BME280;35838;49.134;9.212;2023-01-27T09:09:41;100394.59;;;1.26;70.93
49945;BME280;35838;49.134;9.212;2023-01-27T09:11:18;100394.78;;;1.31;71.14
49945;BME280;35838;49.134;9.212;2023-01-27T09:12:51;100400.41;;;1.22;71.00
49945;BME280;35838;49.134;9.212;2023-01-27T09:14:25;100396.84;;;1.18;71.16
49945;BME280;35838;49.134;9.212;2023-01-27T09:16:01;100388.84;;;1.11;70.92
49945;BME280;35838;49.134;9.212;2023-01-27T09:17:35;100394.94;;;1.14;70.96
49945;BME280;35838;49.134;9.212;2023-01-27T09:19:09;100387.53;;;1.20;70.64
49945;BME280;35838;49.134;9.212;2023-01-27T09:20:43;100390.06;;;1.20;70.93
49945;BME280;35838;49.134;9.212;2023-01-27T09:22:16;100395.19;;;1.20;71.03
49945;BME280;35838;49.134;9.212;2023-01-27T09:23:50;100392.53;;;1.17;71.39
49945;BME280;35838;49.134;9.212;2023-01-27T09:25:24;100385.91;;;1.22;71.09
49945;BME280;35838;49.134;9.212;2023-01-27T09:26:57;100396.47;;;1.30;70.58
49945;BME280;35838;49.134;9.212;2023-01-27T09:28:31;100392.63;;;1.20;70.05
49945;BME280;35838;49.134;9.212;2023-01-27T09:30:05;100388.69;;;1.07;69.81
49945;BME280;35838;49.134;9.212;2023-01-27T09:31:42;100392.94;;;1.07;70.18
49945;BME280;35838;49.134;9.212;2023-01-27T09:33:15;100393.34;;;1.16;70.43
49945;BME280;35838;49.134;9.212;2023-01-27T09:34:49;100400.44;;;1.23;70.68
49945;BME280;35838;49.134;9.212;2023-01-27T09:36:22;100404.06;;;1.29;70.92
49945;BME280;35838;49.134;9.212;2023-01-27T09:37:56;100397.56;;;1.37;70.72
49945;BME280;35838;49.134;9.212;2023-01-27T09:39:31;100397.56;;;1.37;70.52
49945;BME280;35838;49.134;9.212;2023-01-27T09:41:15;100401.22;;;1.42;70.40
49945;BME280;35838;49.134;9.212;2023-01-27T09:44:56;100400.78;;;1.52;69.58
49945;BME280;35838;49.134;9.212;2023-01-27T09:46:40;100409.31;;;1.53;69.01
49945;BME280;35838;49.134;9.212;2023-01-27T09:48:26;100409.63;;;1.61;69.20
49945;BME280;35838;49.134;9.212;2023-01-27T09:50:13;100404.56;;;1.62;69.20
49945;BME280;35838;49.134;9.212;2023-01-27T09:51:55;100399.44;;;1.62;68.72
49945;BME280;35838;49.134;9.212;2023-01-27T09:53:46;100410.81;;;1.69;68.06
49945;BME280;35838;49.134;9.212;2023-01-27T09:55:27;100414.19;;;1.68;67.81
49945;BME280;35838;49.134;9.212;2023-01-27T09:57:05;100412.44;;;1.67;67.76
49945;BME280;35838;49.134;9.212;2023-01-27T09:58:46;100409.94;;;1.68;68.21
49945;BME280;35838;49.134;9.212;2023-01-27T10:00:27;100411.56;;;1.66;67.72
49945;BME280;35838;49.134;9.212;2023-01-27T10:02:06;100417.19;;;1.58;67.24
49945;BME280;35838;49.134;9.212;2023-01-27T10:03:52;100410.31;;;1.56;68.07
49945;BME280;35838;49.134;9.212;2023-01-27T10:07:22;100405.19;;;1.56;69.05
49945;BME280;35838;49.134;9.212;2023-01-27T10:09:03;100413.06;;;1.61;69.19
49945;BME280;35838;49.134;9.212;2023-01-27T10:10:44;100402.53;;;1.53;68.86
49945;BME280;35838;49.134;9.212;2023-01-27T10:12:25;100406.63;;;1.29;68.10
49945;BME280;35838;49.134;9.212;2023-01-27T10:14:06;100412.06;;;1.36;68.54
49945;BME280;35838;49.134;9.212;2023-01-27T10:15:48;100405.44;;;1.41;68.87
49945;BME280;35838;49.134;9.212;2023-01-27T10:17:30;100406.91;;;1.56;69.07
49945;BME280;35838;49.134;9.212;2023-01-27T10:19:13;100402.78;;;1.60;69.37
49945;BME280;35838;49.134;9.212;2023-01-27T10:20:50;100407.13;;;1.62;69.61
49945;BME280;35838;49.134;9.212;2023-01-27T10:22:33;100406.50;;;1.68;68.84
49945;BME280;35838;49.134;9.212;2023-01-27T10:24:12;100408.06;;;1.64;68.37